Time;durP1;ratioP1;P1;durP2;ratioP2;P2;SDS_P1;SDS_P2;PMS_P1;PMS_P2;Temp;Humidity;BMP_temperature;BMP_pressure;BME280_temperature;BME280_humidity;BME280_pressure;Samples;Min_cycle;Max_cycle;Signal;HPM_P1;HPM_P2
2021/12/09 00:00:01;;;;;;;6.28;3.90;;;-2.50;99.90;;;;;;4887227;29;20093;-81
2021/12/09 00:02:39;;;;;;;7.63;4.18;;;-2.50;99.90;;;;;;4897647;29;20123;-81
2021/12/09 00:05:09;;;;;;;8.73;3.25;;;-2.50;99.90;;;;;;4869474;29;21863;-81
2021/12/09 00:07:36;;;;;;;6.35;4.10;;;-2.60;99.90;;;;;;4889493;29;20067;-81
2021/12/09 00:10:08;;;;;;;8.05;4.38;;;-2.60;99.90;;;;;;4890704;29;20060;-81
2021/12/09 00:12:35;;;;;;;4.47;2.85;;;-2.60;99.90;;;;;;4899460;29;20059;-81
2021/12/09 00:15:03;;;;;;;6.90;3.63;;;-2.60;99.90;;;;;;4883136;29;20043;-81
2021/12/09 00:17:30;;;;;;;8.15;3.58;;;-2.70;99.90;;;;;;4889293;29;20064;-81
2021/12/09 00:19:57;;;;;;;7.30;4.68;;;-2.70;99.90;;;;;;4886889;29;20540;-81
2021/12/09 00:22:25;;;;;;;10.23;3.63;;;-2.70;99.90;;;;;;4886495;29;20048;-81
2021/12/09 00:24:53;;;;;;;7.53;3.97;;;-2.70;99.90;;;;;;4884531;29;20451;-81
2021/12/09 00:27:19;;;;;;;9.00;4.75;;;-2.70;99.90;;;;;;4898973;29;20059;-81
2021/12/09 00:29:47;;;;;;;6.95;3.63;;;-2.60;99.90;;;;;;4887022;29;20127;-81
2021/12/09 00:32:14;;;;;;;6.53;4.63;;;-2.60;99.90;;;;;;4884892;29;20056;-81
2021/12/09 00:34:44;;;;;;;10.00;4.53;;;-2.50;99.90;;;;;;4887257;29;20048;-81
2021/12/09 00:39:52;;;;;;;11.38;3.88;;;-2.40;99.90;;;;;;4882876;29;20045;-81
2021/12/09 00:42:24;;;;;;;5.05;3.83;;;-2.40;99.90;;;;;;4901670;29;20049;-81
2021/12/09 00:44:53;;;;;;;6.30;3.83;;;-2.40;99.90;;;;;;4886357;29;20413;-81
2021/12/09 00:47:22;;;;;;;5.28;3.45;;;-2.30;99.90;;;;;;4887245;29;20075;-81
2021/12/09 00:49:51;;;;;;;5.65;3.22;;;-2.30;99.90;;;;;;4885626;29;20059;-81
2021/12/09 00:52:19;;;;;;;2.90;2.22;;;-2.30;99.90;;;;;;4892354;29;20585;-81
2021/12/09 00:54:46;;;;;;;8.38;5.65;;;-2.40;99.90;;;;;;4886069;29;20464;-81
2021/12/09 00:57:13;;;;;;;10.00;2.95;;;-2.30;99.90;;;;;;4884439;29;20049;-81
2021/12/09 00:59:41;;;;;;;5.07;3.03;;;-2.30;99.90;;;;;;4885005;29;20057;-81
2021/12/09 01:02:10;;;;;;;5.05;3.17;;;-2.30;99.90;;;;;;4882475;29;20701;-81
2021/12/09 01:04:40;;;;;;;5.65;3.00;;;-2.30;99.90;;;;;;4887748;29;20784;-81
2021/12/09 01:07:07;;;;;;;3.47;2.42;;;-2.40;99.90;;;;;;4894273;29;20056;-81
2021/12/09 01:09:35;;;;;;;8.52;4.10;;;-2.30;99.90;;;;;;4887389;29;20076;-81
2021/12/09 01:12:04;;;;;;;2.97;2.45;;;-2.30;99.90;;;;;;4901898;29;20462;-81
2021/12/09 01:14:31;;;;;;;3.60;2.45;;;-2.30;99.90;;;;;;4883263;29;20053;-81
2021/12/09 01:16:58;;;;;;;5.78;3.88;;;-2.30;99.90;;;;;;4885633;29;20059;-80
2021/12/09 01:19:25;;;;;;;4.15;2.75;;;-2.30;99.90;;;;;;4886253;29;20081;-81
2021/12/09 01:21:52;;;;;;;8.68;3.38;;;-2.20;99.90;;;;;;4885564;29;20152;-81
2021/12/09 01:24:20;;;;;;;7.13;4.10;;;-2.20;99.90;;;;;;4891451;29;20053;-81
2021/12/09 01:26:49;;;;;;;7.55;2.95;;;-2.20;99.90;;;;;;4902059;29;20135;-81
2021/12/09 01:29:20;;;;;;;7.22;3.08;;;-2.20;99.90;;;;;;4891258;29;20063;-81
2021/12/09 01:31:56;;;;;;;6.70;3.70;;;-2.10;99.90;;;;;;4889782;29;20041;-81
2021/12/09 01:34:24;;;;;;;10.35;4.50;;;-2.10;99.90;;;;;;4904723;29;20060;-81
2021/12/09 01:36:51;;;;;;;4.85;2.95;;;-2.10;99.90;;;;;;4887703;29;20036;-81
2021/12/09 01:39:20;;;;;;;7.10;3.08;;;-2.10;99.90;;;;;;4888330;29;20059;-81
2021/12/09 01:41:48;;;;;;;3.07;2.10;;;-2.10;99.90;;;;;;4890816;29;20418;-81
2021/12/09 01:44:15;;;;;;;8.02;3.00;;;-2.00;99.90;;;;;;4891438;29;20299;-81
2021/12/09 01:46:43;;;;;;;6.07;2.65;;;-2.00;99.90;;;;;;4892291;29;20378;-81
2021/12/09 01:49:10;;;;;;;4.32;2.67;;;-2.00;99.90;;;;;;4888947;29;20092;-81
2021/12/09 01:51:37;;;;;;;6.18;3.28;;;-2.00;99.90;;;;;;4890953;29;20041;-81
2021/12/09 01:54:04;;;;;;;6.85;3.75;;;-2.00;99.90;;;;;;4888117;29;20992;-81
2021/12/09 01:56:31;;;;;;;4.88;2.65;;;-2.00;99.90;;;;;;4902691;29;20147;-81
2021/12/09 01:59:02;;;;;;;4.35;2.47;;;-2.00;99.90;;;;;;4903320;29;20128;-81
2021/12/09 02:01:31;;;;;;;4.43;2.75;;;-1.90;99.90;;;;;;4887635;29;20521;-81
2021/12/09 02:04:02;;;;;;;8.60;3.83;;;-2.00;99.90;;;;;;4902645;29;20402;-81
2021/12/09 02:06:30;;;;;;;3.70;2.50;;;-1.90;99.90;;;;;;4885489;29;20041;-81
2021/12/09 02:08:57;;;;;;;8.90;2.60;;;-2.00;99.90;;;;;;4888198;29;20041;-81
2021/12/09 02:11:24;;;;;;;3.35;2.53;;;-1.90;99.90;;;;;;4886771;29;20078;-81
2021/12/09 02:13:55;;;;;;;3.50;2.67;;;-1.90;99.90;;;;;;4871415;29;20072;-81
2021/12/09 02:16:23;;;;;;;2.95;2.47;;;-2.00;99.90;;;;;;4889680;29;20505;-81
2021/12/09 02:18:50;;;;;;;4.72;2.88;;;-2.00;99.90;;;;;;4888966;29;20565;-81
2021/12/09 02:21:21;;;;;;;5.80;2.83;;;-2.00;99.90;;;;;;4889139;29;20053;-81
2021/12/09 02:23:52;;;;;;;4.32;2.20;;;-2.00;99.90;;;;;;4876449;29;20037;-81
2021/12/09 02:26:23;;;;;;;7.20;3.20;;;-2.00;99.90;;;;;;4889309;29;20883;-81
2021/12/09 02:28:53;;;;;;;8.38;2.50;;;-2.00;99.90;;;;;;4883546;29;20051;-81
2021/12/09 02:31:21;;;;;;;3.58;2.42;;;-2.00;99.90;;;;;;4887851;29;20056;-81
2021/12/09 02:33:49;;;;;;;9.43;3.22;;;-2.00;99.90;;;;;;4890166;29;20143;-81
2021/12/09 02:36:16;;;;;;;6.25;2.38;;;-2.00;99.90;;;;;;4889292;29;20071;-81
2021/12/09 02:38:45;;;;;;;5.15;2.42;;;-2.00;99.90;;;;;;4890600;29;20058;-81
2021/12/09 02:41:18;;;;;;;5.32;2.75;;;-2.00;99.90;;;;;;4903489;29;20079;-81
2021/12/09 02:43:49;;;;;;;4.00;2.95;;;-2.00;99.90;;;;;;4888748;29;20621;-81
2021/12/09 02:46:17;;;;;;;8.50;3.22;;;-2.00;99.90;;;;;;4890092;29;20108;-81
2021/12/09 02:48:45;;;;;;;4.82;2.45;;;-2.00;99.90;;;;;;4892198;29;20059;-81
2021/12/09 02:51:12;;;;;;;6.60;3.58;;;-2.00;99.90;;;;;;4887917;29;20064;-81
2021/12/09 02:53:40;;;;;;;6.15;3.63;;;-2.00;99.90;;;;;;4891081;29;20056;-81
2021/12/09 02:56:07;;;;;;;5.03;3.10;;;-2.00;99.90;;;;;;4888466;29;20707;-81
2021/12/09 02:58:35;;;;;;;6.68;3.00;;;-2.00;99.90;;;;;;4888890;29;20063;-81
2021/12/09 03:01:12;;;;;;;4.78;3.80;;;-1.90;99.90;;;;;;4883218;29;20049;-81
2021/12/09 03:03:54;;;;;;;10.70;3.58;;;-1.90;99.90;;;;;;4892214;29;20052;-81
2021/12/09 03:06:41;;;;;;;4.30;3.10;;;-1.90;99.90;;;;;;4889850;29;20053;-81
2021/12/09 03:09:15;;;;;;;6.53;3.35;;;-1.80;99.90;;;;;;4886502;29;20049;-81
2021/12/09 03:11:44;;;;;;;12.88;4.05;;;-1.90;99.90;;;;;;4881033;29;20048;-81
2021/12/09 03:14:11;;;;;;;7.50;3.25;;;-1.90;99.90;;;;;;4890789;29;20422;-81
2021/12/09 03:16:39;;;;;;;8.20;3.17;;;-1.80;99.90;;;;;;4889793;29;20049;-81
2021/12/09 03:19:08;;;;;;;4.97;3.25;;;-1.90;99.90;;;;;;4901989;29;20064;-81
2021/12/09 03:21:38;;;;;;;7.53;3.28;;;-1.80;99.90;;;;;;4889466;29;20136;-82
2021/12/09 03:24:15;;;;;;;6.13;3.55;;;-1.80;99.90;;;;;;4888854;29;20051;-81
2021/12/09 03:26:47;;;;;;;5.93;3.45;;;-1.80;99.90;;;;;;4886597;29;20108;-81
2021/12/09 03:29:16;;;;;;;5.95;3.97;;;-1.80;99.90;;;;;;4884492;29;20041;-81
2021/12/09 03:31:46;;;;;;;4.35;3.50;;;-1.70;99.90;;;;;;4886583;29;20052;-81
2021/12/09 03:34:15;;;;;;;6.32;3.95;;;-1.70;99.90;;;;;;4886707;29;20056;-81
2021/12/09 03:36:42;;;;;;;8.65;4.00;;;-1.80;99.90;;;;;;4886052;29;20482;-81
2021/12/09 03:39:16;;;;;;;6.35;3.53;;;-1.80;99.90;;;;;;4888553;29;20058;-81
2021/12/09 03:41:48;;;;;;;7.40;4.00;;;-1.70;99.90;;;;;;4887912;29;20040;-81
2021/12/09 03:44:16;;;;;;;7.60;4.85;;;-1.70;99.90;;;;;;4887878;29;20052;-81
2021/12/09 03:46:43;;;;;;;6.88;3.97;;;-1.70;99.90;;;;;;4902256;29;20049;-81
2021/12/09 03:49:11;;;;;;;8.25;4.28;;;-1.70;99.90;;;;;;4886544;29;20112;-81
2021/12/09 03:51:38;;;;;;;10.32;4.40;;;-1.70;99.90;;;;;;4887126;29;20435;-81
2021/12/09 03:54:07;;;;;;;8.57;4.85;;;-1.70;99.90;;;;;;4887760;29;20071;-81
2021/12/09 03:56:35;;;;;;;4.70;3.60;;;-1.70;99.90;;;;;;4870412;29;20057;-81
2021/12/09 03:59:05;;;;;;;5.72;3.88;;;-1.70;99.90;;;;;;4887011;29;20052;-81
2021/12/09 04:01:34;;;;;;;6.15;3.75;;;-1.70;99.90;;;;;;4888265;29;20387;-81
2021/12/09 04:04:01;;;;;;;6.95;3.88;;;-1.70;99.90;;;;;;4886409;29;20048;-81
2021/12/09 04:06:31;;;;;;;7.68;4.10;;;-1.60;99.90;;;;;;4904424;29;20052;-81
2021/12/09 04:08:59;;;;;;;7.03;4.10;;;-1.60;99.90;;;;;;4886552;29;20055;-81
2021/12/09 04:11:27;;;;;;;5.13;3.30;;;-1.60;99.90;;;;;;4887232;29;20067;-81
2021/12/09 04:13:58;;;;;;;7.60;3.50;;;-1.70;99.90;;;;;;4888195;29;20182;-81
2021/12/09 04:16:26;;;;;;;4.88;3.53;;;-1.60;99.90;;;;;;4887982;29;20059;-81
2021/12/09 04:18:53;;;;;;;7.88;3.67;;;-1.60;99.90;;;;;;4886491;29;20057;-81
2021/12/09 04:21:20;;;;;;;6.55;3.78;;;-1.60;99.90;;;;;;4870963;29;20053;-81
2021/12/09 04:23:47;;;;;;;6.38;3.95;;;-1.60;99.90;;;;;;4886509;29;20124;-81
2021/12/09 04:26:14;;;;;;;8.68;3.72;;;-1.70;99.90;;;;;;4885408;29;20059;-82
2021/12/09 04:28:43;;;;;;;5.78;3.50;;;-1.60;99.90;;;;;;4888161;29;20052;-81
2021/12/09 04:31:10;;;;;;;5.75;3.65;;;-1.60;99.90;;;;;;4884651;29;20045;-81
2021/12/09 04:33:38;;;;;;;5.70;3.15;;;-1.60;99.90;;;;;;4885835;29;20049;-81
2021/12/09 04:36:05;;;;;;;4.43;3.53;;;-1.60;99.90;;;;;;4887709;29;20083;-81
2021/12/09 04:38:32;;;;;;;5.07;3.33;;;-1.60;99.90;;;;;;4903411;29;20072;-81
2021/12/09 04:41:00;;;;;;;5.60;3.28;;;-1.70;99.90;;;;;;4899257;29;20506;-81
2021/12/09 04:43:27;;;;;;;11.10;4.13;;;-1.70;99.90;;;;;;4887995;29;20049;-81
2021/12/09 04:45:54;;;;;;;7.13;3.97;;;-1.70;99.90;;;;;;4885766;29;20173;-81
2021/12/09 04:48:21;;;;;;;5.75;3.65;;;-1.60;99.90;;;;;;4886929;29;20041;-81
2021/12/09 04:50:48;;;;;;;7.10;4.07;;;-1.70;99.90;;;;;;4899875;29;20048;-81
2021/12/09 04:53:15;;;;;;;6.50;3.55;;;-1.60;99.90;;;;;;4887149;29;20072;-81
2021/12/09 04:55:43;;;;;;;8.13;4.57;;;-1.60;99.90;;;;;;4889058;29;20048;-81
2021/12/09 04:58:10;;;;;;;3.55;3.25;;;-1.60;99.90;;;;;;4886668;29;20055;-81
2021/12/09 05:00:40;;;;;;;5.78;3.30;;;-1.70;99.90;;;;;;4887308;29;20052;-81
2021/12/09 05:03:13;;;;;;;4.82;3.53;;;-1.60;99.90;;;;;;4883154;29;20060;-81
2021/12/09 05:05:53;;;;;;;7.93;3.80;;;-1.70;99.90;;;;;;4887632;29;20144;-81
2021/12/09 05:08:23;;;;;;;7.03;2.92;;;-1.60;99.90;;;;;;4884236;29;20140;-81
2021/12/09 05:13:22;;;;;;;11.88;3.55;;;-1.60;99.90;;;;;;4887019;29;20059;-81
2021/12/09 05:15:49;;;;;;;5.88;4.18;;;-1.60;99.90;;;;;;4885497;29;20053;-81
2021/12/09 05:18:17;;;;;;;6.07;3.63;;;-1.60;99.90;;;;;;4886036;29;20056;-81
2021/12/09 05:20:45;;;;;;;6.00;3.72;;;-1.50;99.90;;;;;;4885963;29;20470;-81
2021/12/09 05:23:14;;;;;;;6.85;4.85;;;-1.50;99.90;;;;;;4885387;29;20083;-81
2021/12/09 05:25:42;;;;;;;6.68;3.53;;;-1.60;99.90;;;;;;4885325;29;20045;-81
2021/12/09 05:28:11;;;;;;;6.55;3.97;;;-1.50;99.90;;;;;;4902757;29;20058;-81
2021/12/09 05:32:07;;;;;;;6.55;2.42;;;-1.50;99.90;;;;;;4885532;29;20057;-81
2021/12/09 05:33:28;;;;;;;4.53;3.35;;;-1.50;99.90;;;;;;4886155;29;20068;-81
2021/12/09 05:35:56;;;;;;;5.40;3.00;;;-1.50;99.90;;;;;;4885683;29;20097;-81
2021/12/09 05:38:23;;;;;;;5.45;2.75;;;-1.50;99.90;;;;;;4900995;29;20383;-81
2021/12/09 05:40:50;;;;;;;5.22;3.67;;;-1.50;99.90;;;;;;4884183;29;20060;-81
2021/12/09 05:43:18;;;;;;;4.30;2.38;;;-1.50;99.90;;;;;;4887414;29;20490;-81
2021/12/09 05:45:47;;;;;;;3.55;2.55;;;-1.50;99.90;;;;;;4887575;29;20135;-81
2021/12/09 05:48:15;;;;;;;5.55;2.78;;;-1.50;99.90;;;;;;4888414;29;20135;-81
2021/12/09 05:50:42;;;;;;;7.43;3.13;;;-1.50;99.90;;;;;;4884471;29;20053;-81
2021/12/09 05:53:10;;;;;;;4.93;2.92;;;-1.50;99.90;;;;;;4886195;29;20143;-81
2021/12/09 05:55:43;;;;;;;5.63;2.92;;;-1.50;99.90;;;;;;4884546;29;20499;-81
2021/12/09 05:58:13;;;;;;;11.35;4.88;;;-1.50;99.90;;;;;;4887546;29;20040;-81
2021/12/09 06:00:41;;;;;;;;;;;-1.50;99.90;;;;;;4888266;29;20131;-81
2021/12/09 06:03:08;;;;;;;10.80;8.18;;;-1.50;99.90;;;;;;4884861;29;19923;-81
2021/12/09 06:05:36;;;;;;;11.85;7.93;;;-1.50;99.90;;;;;;4885591;29;20048;-81
2021/12/09 06:08:04;;;;;;;7.78;6.43;;;-1.50;99.90;;;;;;4884361;29;20108;-81
2021/12/09 06:10:34;;;;;;;6.80;6.03;;;-1.50;99.90;;;;;;4906310;29;20049;-81
2021/12/09 06:13:01;;;;;;;15.53;6.60;;;-1.40;99.90;;;;;;4903937;29;20045;-82
2021/12/09 06:15:28;;;;;;;8.02;5.43;;;-1.40;99.90;;;;;;4892604;29;20279;-81
2021/12/09 06:17:55;;;;;;;7.68;5.20;;;-1.40;99.90;;;;;;4889017;29;21170;-81
2021/12/09 06:20:23;;;;;;;6.03;4.82;;;-1.40;99.90;;;;;;4894647;29;20154;-81
2021/12/09 06:22:51;;;;;;;4.28;3.28;;;-1.40;99.90;;;;;;4900602;29;20502;-81
2021/12/09 06:25:19;;;;;;;9.20;4.30;;;-1.40;99.90;;;;;;4891950;29;20048;-81
2021/12/09 06:27:48;;;;;;;4.22;3.45;;;-1.40;99.90;;;;;;4889085;29;20062;-81
2021/12/09 06:30:18;;;;;;;4.97;3.28;;;-1.40;99.90;;;;;;4890368;29;20487;-81
2021/12/09 06:32:45;;;;;;;4.83;2.23;;;-1.40;99.90;;;;;;4891804;29;20048;-81
2021/12/09 06:35:13;;;;;;;4.97;2.28;;;-1.30;99.90;;;;;;4880837;29;20284;-81
2021/12/09 06:37:44;;;;;;;6.35;3.67;;;-1.30;99.90;;;;;;4886411;29;20051;-81
2021/12/09 06:40:14;;;;;;;7.00;3.15;;;-1.30;99.90;;;;;;4888125;29;20099;-81
2021/12/09 06:42:42;;;;;;;;;;;-1.30;99.90;;;;;;4893265;29;20048;-81
2021/12/09 06:45:11;;;;;;;4.45;2.75;;;-1.30;99.90;;;;;;4887976;29;19955;-81
2021/12/09 06:47:39;;;;;;;4.93;3.25;;;-1.30;99.90;;;;;;4887616;29;20051;-81
2021/12/09 06:50:08;;;;;;;9.07;4.53;;;-1.30;99.90;;;;;;4904068;29;20091;-81
2021/12/09 06:52:36;;;;;;;7.65;3.10;;;-1.20;99.90;;;;;;4889452;29;20139;-81
2021/12/09 06:55:09;;;;;;;11.50;5.18;;;-1.20;99.90;;;;;;4889353;29;20068;-81
2021/12/09 06:57:38;;;;;;;5.47;3.40;;;-1.20;99.90;;;;;;4890504;29;20431;-81
2021/12/09 07:00:11;;;;;;;4.30;3.13;;;-1.10;99.90;;;;;;4889612;29;20108;-81
2021/12/09 07:02:38;;;;;;;7.53;3.05;;;-1.10;99.90;;;;;;4889257;29;20384;-81
2021/12/09 07:05:07;;;;;;;4.28;3.05;;;-1.10;99.90;;;;;;4888912;29;20084;-81
2021/12/09 07:07:34;;;;;;;5.25;2.55;;;-1.10;99.90;;;;;;4887607;29;20171;-81
2021/12/09 07:10:02;;;;;;;4.80;3.03;;;-1.10;99.90;;;;;;4887839;29;20071;-81
2021/12/09 07:12:29;;;;;;;5.75;2.83;;;-1.10;99.90;;;;;;4891008;29;20246;-81
2021/12/09 07:14:56;;;;;;;5.70;5.22;;;-1.10;99.90;;;;;;4902912;29;20060;-81
2021/12/09 07:17:23;;;;;;;5.72;2.78;;;-1.10;99.90;;;;;;4891467;29;20057;-81
2021/12/09 07:19:50;;;;;;;4.28;2.30;;;-1.10;99.90;;;;;;4890189;29;20048;-81
2021/12/09 07:22:17;;;;;;;3.88;2.88;;;-1.10;99.90;;;;;;4905389;29;20057;-81
2021/12/09 07:24:45;;;;;;;3.08;2.40;;;-1.20;99.90;;;;;;4888847;29;21449;-81
2021/12/09 07:27:12;;;;;;;5.18;3.10;;;-1.20;99.90;;;;;;4890392;29;20052;-81
2021/12/09 07:29:39;;;;;;;5.82;3.13;;;-1.20;99.90;;;;;;4886619;29;20052;-81
2021/12/09 07:32:06;;;;;;;4.47;2.65;;;-1.20;99.90;;;;;;4891943;29;20045;-81
2021/12/09 07:34:33;;;;;;;5.05;2.90;;;-1.10;99.90;;;;;;4891130;29;20155;-81
2021/12/09 07:37:04;;;;;;;5.55;3.90;;;-1.20;99.90;;;;;;4889907;29;20558;-81
2021/12/09 07:39:32;;;;;;;4.47;3.22;;;-1.20;99.90;;;;;;4889855;29;20056;-81
2021/12/09 07:42:00;;;;;;;5.05;2.75;;;-1.20;99.90;;;;;;4895075;29;20056;-81
2021/12/09 07:44:30;;;;;;;4.03;2.65;;;-1.20;99.90;;;;;;4888843;29;20060;-81
2021/12/09 07:46:59;;;;;;;4.30;3.45;;;-1.30;99.90;;;;;;4890311;29;20076;-80
2021/12/09 07:49:27;;;;;;;5.57;2.88;;;-1.20;99.90;;;;;;4903118;29;20064;-81
2021/12/09 07:51:55;;;;;;;4.25;2.60;;;-1.20;99.90;;;;;;4890430;29;20056;-81
2021/12/09 07:54:23;;;;;;;7.10;3.22;;;-1.20;99.90;;;;;;4903995;29;20075;-81
2021/12/09 07:56:50;;;;;;;5.35;4.53;;;-1.20;99.90;;;;;;4872589;29;20075;-81
2021/12/09 07:59:18;;;;;;;6.35;3.20;;;-1.20;99.90;;;;;;4889859;29;20131;-81
2021/12/09 08:01:46;;;;;;;4.22;3.70;;;-1.20;99.90;;;;;;4892254;29;20048;-81
2021/12/09 08:04:14;;;;;;;3.47;3.17;;;-1.10;99.90;;;;;;4889567;29;20167;-82
2021/12/09 08:06:41;;;;;;;5.32;3.90;;;-1.10;99.90;;;;;;4886261;29;20590;-82
2021/12/09 08:09:09;;;;;;;5.35;3.92;;;-1.10;99.90;;;;;;4886601;29;20411;-82
2021/12/09 08:11:37;;;;;;;8.38;3.17;;;-1.10;99.90;;;;;;4888948;29;20055;-82
2021/12/09 08:14:06;;;;;;;6.47;3.22;;;-1.10;99.90;;;;;;4890080;29;20056;-82
2021/12/09 08:16:37;;;;;;;5.22;4.15;;;-1.00;99.90;;;;;;4892784;29;20132;-82
2021/12/09 08:19:06;;;;;;;8.48;3.15;;;-1.10;99.90;;;;;;4887264;29;20131;-82
2021/12/09 08:21:35;;;;;;;5.90;4.07;;;-1.10;99.90;;;;;;4888558;29;20092;-82
2021/12/09 08:24:04;;;;;;;7.97;4.13;;;-1.00;99.90;;;;;;4887891;29;20147;-81
2021/12/09 08:26:32;;;;;;;4.07;3.67;;;-1.10;99.90;;;;;;4901360;29;20044;-81
2021/12/09 08:28:59;;;;;;;3.95;3.05;;;-1.00;99.90;;;;;;4887328;29;20041;-81
2021/12/09 08:31:33;;;;;;;5.35;3.45;;;-1.00;99.90;;;;;;4892081;29;20044;-82
2021/12/09 08:34:10;;;;;;;5.05;3.40;;;-1.00;99.90;;;;;;4891253;29;20048;-82
2021/12/09 08:36:48;;;;;;;4.03;3.58;;;-1.00;99.90;;;;;;4888076;29;20502;-81
2021/12/09 08:39:20;;;;;;;3.35;3.00;;;-1.00;99.90;;;;;;4887561;29;20066;-81
2021/12/09 08:41:47;;;;;;;3.35;3.00;;;-1.00;99.90;;;;;;4887380;29;20526;-81
2021/12/09 08:44:14;;;;;;;4.35;3.95;;;-1.00;99.90;;;;;;4893301;29;20052;-81
2021/12/09 08:46:42;;;;;;;4.88;3.13;;;-1.00;99.90;;;;;;4893230;29;20048;-81
2021/12/09 08:49:09;;;;;;;3.90;2.60;;;-1.00;99.90;;;;;;4887376;29;20108;-81
2021/12/09 08:51:37;;;;;;;3.53;1.95;;;-1.00;99.90;;;;;;4887453;29;21522;-81
2021/12/09 08:54:05;;;;;;;5.78;2.63;;;-1.00;99.90;;;;;;4902951;29;20162;-82
2021/12/09 08:56:34;;;;;;;3.97;3.45;;;-1.00;99.90;;;;;;4893683;29;20147;-82
2021/12/09 08:59:03;;;;;;;3.20;2.40;;;-1.00;99.90;;;;;;4887298;29;20059;-79
2021/12/09 09:01:31;;;;;;;8.02;3.05;;;-1.00;99.90;;;;;;4890330;29;20054;-79
2021/12/09 09:03:59;;;;;;;3.47;1.88;;;-1.00;99.90;;;;;;4890165;29;20040;-79
2021/12/09 09:06:29;;;;;;;2.83;1.67;;;-0.90;99.90;;;;;;4887810;29;20068;-79
2021/12/09 09:08:58;;;;;;;4.15;2.55;;;-1.00;99.90;;;;;;4894615;29;20067;-80
2021/12/09 09:11:28;;;;;;;7.30;2.15;;;-1.00;99.90;;;;;;4889476;29;20044;-80
2021/12/09 09:13:57;;;;;;;2.70;2.28;;;-1.00;99.90;;;;;;4892025;29;20044;-79
2021/12/09 09:16:24;;;;;;;3.38;2.45;;;-1.00;99.90;;;;;;4889585;29;20045;-80
2021/12/09 09:18:55;;;;;;;3.00;1.98;;;-1.00;99.90;;;;;;4895219;29;20060;-80
2021/12/09 09:21:22;;;;;;;5.40;2.40;;;-1.10;99.90;;;;;;4889266;29;20056;-79
2021/12/09 09:23:49;;;;;;;4.28;2.25;;;-1.10;99.90;;;;;;4893180;29;20060;-80
2021/12/09 09:26:16;;;;;;;5.55;2.33;;;-1.10;99.90;;;;;;4889608;29;20048;-80
2021/12/09 09:28:44;;;;;;;4.38;2.60;;;-1.10;99.90;;;;;;4890124;29;20179;-80
2021/12/09 09:31:12;;;;;;;4.75;3.15;;;-1.00;99.90;;;;;;4887533;29;20045;-80
2021/12/09 09:33:39;;;;;;;4.00;3.63;;;-0.90;99.90;;;;;;4897690;29;20051;-80
2021/12/09 09:36:07;;;;;;;3.38;2.60;;;-0.90;99.90;;;;;;4886980;29;20044;-79
2021/12/09 09:38:34;;;;;;;4.45;2.95;;;-0.90;99.90;;;;;;4890640;29;20485;-79
2021/12/09 09:41:09;;;;;;;6.15;2.90;;;-0.80;99.90;;;;;;4900613;29;20393;-79
2021/12/09 09:46:16;;;;;;;4.32;2.50;;;-0.80;99.90;;;;;;4892519;29;20569;-79
2021/12/09 09:48:47;;;;;;;3.17;2.25;;;-0.70;99.90;;;;;;4900965;29;20044;-79
2021/12/09 09:51:15;;;;;;;5.97;3.08;;;-0.80;99.90;;;;;;4890186;29;20047;-79
2021/12/09 09:53:43;;;;;;;4.20;3.20;;;-0.80;99.90;;;;;;4895039;29;20972;-79
2021/12/09 09:56:18;;;;;;;4.32;2.67;;;-0.70;99.90;;;;;;4892109;29;20370;-79
2021/12/09 09:58:49;;;;;;;4.75;4.30;;;-0.70;99.90;;;;;;4910284;29;20085;-79
2021/12/09 10:01:17;;;;;;;5.72;2.83;;;-0.70;99.90;;;;;;4889920;29;20151;-79
2021/12/09 10:03:47;;;;;;;6.32;3.88;;;-0.60;99.90;;;;;;4894075;29;20483;-79
2021/12/09 10:06:19;;;;;;;6.32;2.95;;;-0.60;99.90;;;;;;4899716;29;20067;-80
2021/12/09 10:08:47;;;;;;;3.50;2.60;;;-0.60;99.90;;;;;;4893130;29;20048;-80
2021/12/09 10:11:14;;;;;;;4.82;2.80;;;-0.60;99.90;;;;;;4895595;29;20382;-80
2021/12/09 10:13:43;;;;;;;7.18;3.20;;;-0.60;99.90;;;;;;4903887;29;20045;-80
2021/12/09 10:16:21;;;;;;;5.80;2.60;;;-0.60;99.90;;;;;;4888203;29;20056;-80
2021/12/09 10:18:51;;;;;;;2.63;2.10;;;-0.60;99.90;;;;;;4886381;29;20041;-80
2021/12/09 10:21:24;;;;;;;3.67;2.90;;;-0.70;99.90;;;;;;4890487;29;20061;-80
2021/12/09 10:24:06;;;;;;;3.60;2.67;;;-0.60;99.90;;;;;;4890217;29;20044;-80
2021/12/09 10:26:42;;;;;;;3.35;2.20;;;-0.60;99.90;;;;;;4888751;29;20119;-80
2021/12/09 10:29:15;;;;;;;3.50;1.95;;;-0.60;99.90;;;;;;4888086;29;20707;-80
2021/12/09 10:31:52;;;;;;;4.45;2.60;;;-0.60;99.90;;;;;;4900599;29;20051;-80
2021/12/09 10:34:39;;;;;;;4.53;2.70;;;-0.60;99.90;;;;;;4904592;29;20045;-80
2021/12/09 10:37:29;;;;;;;3.55;2.42;;;-0.50;99.90;;;;;;4889494;29;20123;-81
2021/12/09 10:40:15;;;;;;;4.00;3.30;;;-0.50;99.90;;;;;;4886697;29;20052;-80
2021/12/09 10:42:47;;;;;;;3.70;2.13;;;-0.40;99.90;;;;;;4891726;29;20052;-81
2021/12/09 10:45:20;;;;;;;2.53;1.92;;;-0.50;99.90;;;;;;4888598;29;20048;-81
2021/12/09 10:47:57;;;;;;;4.40;2.17;;;-0.50;99.90;;;;;;4881345;29;20053;-81
2021/12/09 10:55:49;;;;;;;4.07;2.50;;;-0.50;99.90;;;;;;4889061;29;20067;-81
2021/12/09 10:58:23;;;;;;;3.45;2.53;;;-0.50;99.90;;;;;;4888237;29;20148;-81
2021/12/09 11:00:53;;;;;;;5.63;3.22;;;-0.40;99.90;;;;;;4900489;29;20048;-81
2021/12/09 11:03:33;;;;;;;;;;;-0.50;99.90;;;;;;4885997;29;20041;-81
2021/12/09 11:06:01;;;;;;;4.30;2.40;;;-0.40;99.90;;;;;;4888924;29;19924;-81
2021/12/09 11:08:29;;;;;;;8.63;4.47;;;-0.30;99.90;;;;;;4889807;29;20048;-81
2021/12/09 11:11:11;;;;;;;3.40;2.45;;;-0.30;99.90;;;;;;4887834;29;20119;-81
2021/12/09 11:13:54;;;;;;;7.38;2.63;;;-0.30;99.90;;;;;;4889140;29;20101;-81
2021/12/09 11:16:25;;;;;;;9.35;2.95;;;-0.30;99.90;;;;;;4889256;29;20593;-81
2021/12/09 11:19:13;;;;;;;;;;;-0.30;99.90;;;;;;4888349;29;20190;-81
2021/12/09 11:21:51;;;;;;;3.53;2.45;;;-0.30;99.90;;;;;;4874266;29;19924;-81
2021/12/09 11:24:20;;;;;;;3.90;2.05;;;-0.30;99.90;;;;;;4901074;29;20067;-81
2021/12/09 11:27:02;;;;;;;4.13;2.45;;;-0.30;99.90;;;;;;4885320;29;20052;-81
2021/12/09 11:29:36;;;;;;;3.03;1.90;;;-0.40;99.90;;;;;;4904517;29;20072;-81
2021/12/09 11:32:13;;;;;;;3.28;2.03;;;-0.30;99.90;;;;;;4900141;29;20059;-81
2021/12/09 11:34:54;;;;;;;7.40;3.35;;;-0.40;99.90;;;;;;4890927;29;20459;-81
2021/12/09 11:40:08;;;;;;;6.07;2.60;;;-0.40;99.90;;;;;;4893127;29;20053;-81
2021/12/09 11:42:50;;;;;;;3.85;2.50;;;-0.40;99.90;;;;;;4889718;29;20083;-81
2021/12/09 11:45:22;;;;;;;4.38;2.70;;;-0.40;99.90;;;;;;4872039;29;20049;-81
2021/12/09 11:47:53;;;;;;;8.13;3.25;;;-0.40;99.90;;;;;;4887978;29;20067;-81
2021/12/09 11:50:25;;;;;;;4.75;2.40;;;-0.40;99.90;;;;;;4890961;29;20052;-82
2021/12/09 11:52:54;;;;;;;3.80;1.83;;;-0.40;99.90;;;;;;4887764;29;20052;-81
2021/12/09 11:55:29;;;;;;;4.10;2.42;;;-0.50;99.90;;;;;;4888715;29;20100;-81
2021/12/09 11:58:02;;;;;;;4.10;2.15;;;-0.50;99.90;;;;;;4887277;29;20181;-81
2021/12/09 12:18:35;;;;;;;4.75;3.97;;;-0.30;99.90;;;;;;4887948;29;20502;-81
2021/12/09 12:40:17;;;;;;;7.28;3.45;;;-0.40;99.90;;;;;;4887531;29;20045;-81
2021/12/09 12:43:14;;;;;;;;;;;-0.50;99.90;;;;;;4882979;29;20053;-81
2021/12/09 12:51:23;;;;;;;5.10;3.42;;;-0.50;99.90;;;;;;4885713;29;20812;-81
2021/12/09 12:56:57;;;;;;;8.00;3.50;;;-0.50;99.90;;;;;;4882697;29;20092;-81
2021/12/09 12:59:36;;;;;;;6.22;3.35;;;-0.50;99.90;;;;;;4898642;29;20071;-81
2021/12/09 13:02:43;;;;;;;6.90;4.20;;;-0.60;99.90;;;;;;4887178;29;20077;-81
2021/12/09 13:09:13;;;;;;;9.75;5.80;;;-0.60;99.90;;;;;;4884848;29;20048;-79
2021/12/09 13:11:52;;;;;;;14.55;4.70;;;-0.70;99.90;;;;;;4886201;29;20044;-79
2021/12/09 13:14:27;;;;;;;11.00;5.18;;;-0.70;99.90;;;;;;4887136;29;20230;-79
2021/12/09 13:19:41;;;;;;;5.38;3.95;;;-0.70;99.90;;;;;;4886411;29;20379;-79
2021/12/09 13:22:11;;;;;;;7.00;4.78;;;-0.70;99.90;;;;;;4887352;29;20052;-79
2021/12/09 13:24:57;;;;;;;8.35;5.00;;;-0.70;99.90;;;;;;4887685;29;20055;-79
2021/12/09 13:27:43;;;;;;;6.68;4.93;;;-0.70;99.90;;;;;;4886015;29;20060;-79
2021/12/09 13:33:47;;;;;;;6.93;4.32;;;-0.80;99.90;;;;;;4883336;29;20057;-80
2021/12/09 13:46:41;;;;;;;8.05;4.53;;;-0.80;99.90;;;;;;4891708;29;20044;-80
2021/12/09 13:54:26;;;;;;;9.82;5.57;;;-0.80;99.90;;;;;;4886421;29;20060;-80
2021/12/09 13:56:58;;;;;;;8.98;5.22;;;-0.70;99.90;;;;;;4880831;29;20040;-80
2021/12/09 13:59:28;;;;;;;8.95;6.03;;;-0.70;99.90;;;;;;4902435;29;20215;-81
2021/12/09 14:01:56;;;;;;;19.13;9.07;;;-0.70;99.90;;;;;;4885180;29;20055;-80
2021/12/09 14:04:31;;;;;;;16.42;9.13;;;-0.70;99.90;;;;;;4885200;29;20057;-80
2021/12/09 14:07:17;;;;;;;9.20;5.25;;;-0.70;99.90;;;;;;4896404;29;20057;-80
2021/12/09 14:09:57;;;;;;;10.38;5.43;;;-0.70;99.90;;;;;;4885357;29;20440;-80
2021/12/09 14:12:37;;;;;;;7.40;6.20;;;-0.70;99.90;;;;;;4882221;29;20053;-80
2021/12/09 14:15:08;;;;;;;11.32;5.00;;;-0.70;99.90;;;;;;4897006;29;20143;-81
2021/12/09 14:17:39;;;;;;;10.68;5.38;;;-0.70;99.90;;;;;;4899005;29;20055;-80
2021/12/09 14:20:20;;;;;;;9.18;5.50;;;-0.70;99.90;;;;;;4888152;29;20169;-81
2021/12/09 14:22:51;;;;;;;7.82;5.95;;;-0.60;99.90;;;;;;4886748;29;20041;-81
2021/12/09 14:25:22;;;;;;;10.07;7.53;;;-0.60;99.90;;;;;;4892109;29;20053;-80
2021/12/09 14:27:52;;;;;;;7.93;5.88;;;-0.60;99.90;;;;;;4883531;29;20056;-81
2021/12/09 14:30:23;;;;;;;7.07;4.77;;;-0.70;99.90;;;;;;4886630;29;20159;-80